createdAt,value
2023-01-23T00:02:10.986Z,6.72
2023-01-23T00:04:37.711Z,8.98
2023-01-23T00:07:04.499Z,7.07
2023-01-23T00:09:31.799Z,8.07
2023-01-23T00:11:58.837Z,8.10
2023-01-23T00:14:25.546Z,8.43
2023-01-23T00:16:52.306Z,7.20
2023-01-23T00:19:19.290Z,8.27
2023-01-23T00:21:45.973Z,6.65
2023-01-23T00:24:12.993Z,7.38
2023-01-23T00:26:40.255Z,7.70
2023-01-23T00:29:07.445Z,7.32
2023-01-23T00:31:37.225Z,7.35
2023-01-23T00:34:10.937Z,7.47
2023-01-23T00:36:39.795Z,8.48
2023-01-23T00:39:21.154Z,6.90
2023-01-23T00:41:49.021Z,8.18
2023-01-23T00:44:16.316Z,6.63
2023-01-23T00:46:43.140Z,7.35
2023-01-23T00:49:09.929Z,6.32
2023-01-23T00:51:36.638Z,7.38
2023-01-23T00:54:04.925Z,7.90
2023-01-23T00:56:31.560Z,7.53
2023-01-23T00:58:58.398Z,7.18
2023-01-23T01:01:26.187Z,7.50
2023-01-23T01:03:52.864Z,6.93
2023-01-23T01:06:19.592Z,7.22
2023-01-23T01:08:47.911Z,7.30
2023-01-23T01:11:14.828Z,7.82
2023-01-23T01:13:41.814Z,7.07
2023-01-23T01:16:08.606Z,7.88
2023-01-23T01:18:35.427Z,7.35
2023-01-23T01:21:06.480Z,7.47
2023-01-23T01:23:33.169Z,7.00
2023-01-23T01:26:00.731Z,7.18
2023-01-23T01:28:32.766Z,6.50
2023-01-23T01:31:07.772Z,7.18
2023-01-23T01:33:35.081Z,7.18
2023-01-23T01:36:02.288Z,7.38
2023-01-23T01:38:29.022Z,7.85
2023-01-23T01:40:57.383Z,7.22
2023-01-23T01:43:26.824Z,7.32
2023-01-23T01:46:13.162Z,7.10
2023-01-23T01:48:56.623Z,6.80
2023-01-23T01:51:32.591Z,7.43
2023-01-23T01:54:34.376Z,7.78
2023-01-23T01:57:15.326Z,7.63
2023-01-23T02:00:18.998Z,8.25
2023-01-23T02:02:55.132Z,7.45
2023-01-23T02:05:26.744Z,7.00
2023-01-23T02:08:05.715Z,6.65
2023-01-23T02:10:34.786Z,6.78
2023-01-23T02:13:36.063Z,8.82
2023-01-23T02:16:08.420Z,7.93
2023-01-23T02:18:36.992Z,7.00
2023-01-23T02:21:06.360Z,7.47
2023-01-23T02:26:30.078Z,8.55
2023-01-23T02:28:57.455Z,7.72
2023-01-23T02:31:24.359Z,8.23
2023-01-23T02:33:53.500Z,8.32
2023-01-23T02:36:27.017Z,7.65
2023-01-23T02:39:07.341Z,8.85
2023-01-23T02:41:38.634Z,7.45
2023-01-23T02:44:12.685Z,7.93
2023-01-23T02:46:40.238Z,8.80
2023-01-23T02:49:06.966Z,8.68
2023-01-23T02:51:33.699Z,7.53
2023-01-23T02:54:00.597Z,7.90
2023-01-23T02:56:27.341Z,9.55
2023-01-23T02:59:12.772Z,8.38
2023-01-23T03:01:39.762Z,8.13
2023-01-23T03:04:06.810Z,9.82
2023-01-23T03:06:38.665Z,11.63
2023-01-23T03:09:08.631Z,9.30
2023-01-23T03:11:36.735Z,9.02
2023-01-23T03:14:03.764Z,9.60
2023-01-23T03:16:30.638Z,8.57
2023-01-23T03:18:58.289Z,8.50
2023-01-23T03:21:25.062Z,8.35
2023-01-23T03:23:52.302Z,10.90
2023-01-23T03:26:18.992Z,9.73
2023-01-23T03:29:04.509Z,10.35
2023-01-23T03:31:31.234Z,9.15
2023-01-23T03:33:58.031Z,8.20
2023-01-23T03:36:24.689Z,8.98
2023-01-23T03:39:09.798Z,7.45
2023-01-23T03:41:38.265Z,9.23
2023-01-23T03:44:05.049Z,8.32
2023-01-23T03:46:31.659Z,8.65
2023-01-23T03:48:58.384Z,9.65
2023-01-23T03:51:25.188Z,10.30
2023-01-23T03:53:54.033Z,9.48
2023-01-23T03:56:20.711Z,9.23
2023-01-23T03:58:47.490Z,7.38
2023-01-23T04:01:14.212Z,7.78
2023-01-23T04:03:40.861Z,7.03
2023-01-23T04:06:07.542Z,10.52
2023-01-23T04:08:34.276Z,9.68
2023-01-23T04:11:06.500Z,9.02
2023-01-23T04:13:33.571Z,8.88
2023-01-23T04:16:00.976Z,10.35
2023-01-23T04:18:28.215Z,10.38
2023-01-23T04:20:55.198Z,10.25
2023-01-23T04:23:22.742Z,9.95
2023-01-23T04:25:50.336Z,10.27
2023-01-23T04:28:17.555Z,10.27
2023-01-23T04:30:44.326Z,10.90
2023-01-23T04:33:11.466Z,9.85
2023-01-23T04:35:38.140Z,10.98
2023-01-23T04:38:04.909Z,11.05
2023-01-23T04:40:32.830Z,12.32
2023-01-23T04:42:59.522Z,11.65
2023-01-23T04:45:26.261Z,13.85
2023-01-23T04:47:52.952Z,8.85
2023-01-23T04:50:20.160Z,10.65
2023-01-23T04:52:46.910Z,9.52
2023-01-23T04:55:14.100Z,11.35
2023-01-23T04:57:40.865Z,8.55
2023-01-23T05:00:10.657Z,8.90
2023-01-23T05:02:37.475Z,8.80
2023-01-23T05:05:04.465Z,9.73
2023-01-23T05:07:31.152Z,10.60
2023-01-23T05:09:57.806Z,11.70
2023-01-23T05:12:24.485Z,12.57
2023-01-23T05:14:51.174Z,10.63
2023-01-23T05:17:17.890Z,10.68
2023-01-23T05:19:44.517Z,11.43
2023-01-23T05:22:11.253Z,12.23
2023-01-23T05:24:39.170Z,12.98
2023-01-23T05:27:06.197Z,8.45
2023-01-23T05:29:33.977Z,8.68
2023-01-23T05:32:00.740Z,8.52
2023-01-23T05:34:27.579Z,12.40
2023-01-23T05:36:54.678Z,10.20
2023-01-23T05:39:22.274Z,9.82
2023-01-23T05:41:48.905Z,9.50
2023-01-23T05:44:15.580Z,9.80
2023-01-23T05:46:42.269Z,11.88
2023-01-23T05:49:08.933Z,11.20
2023-01-23T05:51:35.682Z,10.07
2023-01-23T05:54:02.985Z,11.48
2023-01-23T05:56:29.868Z,10.05
2023-01-23T05:58:56.525Z,9.82
2023-01-23T06:01:23.247Z,8.15
2023-01-23T06:03:49.976Z,8.82
2023-01-23T06:06:16.784Z,8.75
2023-01-23T06:08:43.446Z,9.23
2023-01-23T06:11:10.172Z,8.90
2023-01-23T06:13:37.003Z,8.30
2023-01-23T06:16:03.892Z,8.98
2023-01-23T06:18:30.670Z,7.70
2023-01-23T06:20:59.415Z,9.93
2023-01-23T06:23:26.464Z,10.23
2023-01-23T06:25:53.445Z,7.85
2023-01-23T06:28:21.541Z,7.88
2023-01-23T06:30:48.273Z,9.00
2023-01-23T06:33:14.988Z,8.93
2023-01-23T06:35:42.223Z,7.43
2023-01-23T06:38:09.013Z,8.55
2023-01-23T06:40:35.654Z,8.20
2023-01-23T06:43:02.320Z,9.05
2023-01-23T06:45:28.962Z,8.38
2023-01-23T06:47:55.657Z,7.63
2023-01-23T06:50:22.529Z,7.93
2023-01-23T06:52:49.441Z,10.25
2023-01-23T06:55:16.202Z,7.95
2023-01-23T06:57:42.887Z,8.55
2023-01-23T07:00:13.156Z,8.00
2023-01-23T07:02:40.097Z,8.93
2023-01-23T07:05:07.071Z,8.30
2023-01-23T07:07:33.842Z,8.85
2023-01-23T07:10:00.555Z,8.52
2023-01-23T07:12:27.340Z,9.02
2023-01-23T07:14:54.080Z,8.40
2023-01-23T07:17:20.736Z,7.82
2023-01-23T07:19:47.400Z,7.90
2023-01-23T07:22:18.317Z,9.73
2023-01-23T07:24:45.509Z,8.10
2023-01-23T07:27:12.221Z,9.32
2023-01-23T07:29:38.880Z,9.02
2023-01-23T07:32:10.840Z,9.45
2023-01-23T07:34:37.776Z,8.88
2023-01-23T07:37:04.447Z,8.95
2023-01-23T07:39:32.739Z,9.10
2023-01-23T07:41:59.619Z,7.30
2023-01-23T07:44:26.392Z,7.93
2023-01-23T07:46:53.119Z,9.90
2023-01-23T07:49:19.988Z,10.15
2023-01-23T07:51:46.769Z,7.50
2023-01-23T07:54:13.493Z,9.52
2023-01-23T07:56:40.331Z,6.68
2023-01-23T07:59:06.969Z,7.90
2023-01-23T08:01:33.923Z,7.97
2023-01-23T08:04:00.687Z,9.05
2023-01-23T08:06:27.340Z,8.20
2023-01-23T08:08:54.023Z,8.75
2023-01-23T08:11:20.675Z,12.20
2023-01-23T08:13:52.150Z,9.77
2023-01-23T08:16:18.876Z,11.30
2023-01-23T08:18:45.652Z,9.05
2023-01-23T08:21:12.357Z,9.02
2023-01-23T08:23:39.239Z,10.15
2023-01-23T08:26:07.731Z,8.98
2023-01-23T08:28:36.464Z,8.80
2023-01-23T08:31:06.643Z,8.23
2023-01-23T08:33:34.666Z,8.80
2023-01-23T08:36:01.959Z,8.32
2023-01-23T08:38:29.059Z,8.05
2023-01-23T08:41:00.231Z,8.05
2023-01-23T08:43:27.293Z,8.60
2023-01-23T08:45:56.025Z,8.40
2023-01-23T08:48:24.813Z,8.63
2023-01-23T08:50:52.811Z,8.07
2023-01-23T08:53:19.582Z,7.45
2023-01-23T08:55:46.391Z,7.82
2023-01-23T08:58:13.239Z,7.90
2023-01-23T09:00:40.867Z,7.38
2023-01-23T09:03:09.865Z,8.73
2023-01-23T09:05:37.803Z,7.88
2023-01-23T09:08:05.168Z,8.27
2023-01-23T09:10:32.021Z,9.00
2023-01-23T09:12:59.448Z,8.98
2023-01-23T09:15:26.202Z,8.82
2023-01-23T09:17:52.870Z,9.77
2023-01-23T09:20:19.909Z,9.35
2023-01-23T09:22:46.729Z,9.48
2023-01-23T09:25:14.349Z,9.05
2023-01-23T09:27:41.177Z,10.73
2023-01-23T09:30:08.453Z,10.43
2023-01-23T09:32:35.164Z,9.00
2023-01-23T09:35:01.977Z,8.75
2023-01-23T09:37:58.565Z,9.00
2023-01-23T09:40:28.728Z,9.07
2023-01-23T09:42:59.461Z,10.52
2023-01-23T09:45:27.277Z,10.27
2023-01-23T09:48:15.473Z,8.05
2023-01-23T09:50:53.691Z,11.38
2023-01-23T09:53:23.459Z,12.73
2023-01-23T09:56:01.953Z,9.55
2023-01-23T09:58:34.412Z,8.80
2023-01-23T10:01:01.082Z,15.02
2023-01-23T10:03:30.300Z,10.48
2023-01-23T10:08:39.509Z,8.80
2023-01-23T10:11:34.177Z,16.33
2023-01-23T10:14:17.436Z,13.02
2023-01-23T10:17:16.759Z,9.88
2023-01-23T10:20:11.264Z,11.43
2023-01-23T10:22:42.747Z,8.77
2023-01-23T10:25:13.513Z,9.70
2023-01-23T10:27:43.963Z,11.70
2023-01-23T10:30:19.720Z,11.20
2023-01-23T10:32:58.017Z,12.40
2023-01-23T10:35:37.056Z,11.38
2023-01-23T10:38:41.496Z,11.85
2023-01-23T10:41:14.716Z,9.52
2023-01-23T10:43:56.831Z,9.40
2023-01-23T10:46:59.966Z,12.10
2023-01-23T10:49:41.300Z,11.13
2023-01-23T10:52:37.883Z,12.48
2023-01-23T10:55:10.139Z,8.88
2023-01-23T10:57:49.011Z,9.32
2023-01-23T11:00:27.165Z,8.35
2023-01-23T11:02:55.045Z,9.25
2023-01-23T11:06:11.645Z,9.35
2023-01-23T11:08:58.684Z,12.15
2023-01-23T11:11:27.752Z,10.38
2023-01-23T11:14:12.449Z,12.18
2023-01-23T11:16:39.231Z,11.40
2023-01-23T11:19:11.017Z,13.05
2023-01-23T11:21:58.801Z,11.23
2023-01-23T11:24:38.603Z,12.05
2023-01-23T11:27:15.267Z,10.57
2023-01-23T11:32:16.307Z,12.63
2023-01-23T11:34:50.637Z,10.52
2023-01-23T11:37:37.028Z,13.48
2023-01-23T11:40:19.583Z,14.02
2023-01-23T11:42:46.949Z,11.85
2023-01-23T11:45:18.829Z,10.55
2023-01-23T11:48:03.936Z,13.60
2023-01-23T11:50:54.879Z,12.88
2023-01-23T11:53:43.716Z,11.90
2023-01-23T11:56:10.345Z,9.40
2023-01-23T11:58:52.197Z,9.35
2023-01-23T12:02:02.228Z,8.88
2023-01-23T12:04:32.667Z,11.90
2023-01-23T12:09:50.270Z,12.88
2023-01-23T12:12:38.253Z,12.75
2023-01-23T12:17:57.697Z,13.80
2023-01-23T12:20:30.032Z,12.68
2023-01-23T12:23:27.342Z,12.52
2023-01-23T12:26:18.719Z,14.63
2023-01-23T12:29:11.332Z,15.88
2023-01-23T12:32:06.062Z,14.43
2023-01-23T12:35:14.606Z,14.43
2023-01-23T12:37:42.297Z,15.02
2023-01-23T12:40:22.729Z,15.60
2023-01-23T12:42:53.206Z,12.48
2023-01-23T12:45:25.263Z,12.32
2023-01-23T12:48:23.222Z,12.35
2023-01-23T12:50:53.908Z,17.98
2023-01-23T12:53:24.915Z,12.68
2023-01-23T12:55:57.785Z,15.52
2023-01-23T12:58:28.276Z,12.63
2023-01-23T13:01:24.934Z,15.88
2023-01-23T13:04:21.152Z,12.95
2023-01-23T13:07:09.257Z,14.43
2023-01-23T13:10:05.226Z,13.25
2023-01-23T13:12:32.235Z,15.50
2023-01-23T13:15:22.405Z,14.70
2023-01-23T13:18:01.039Z,16.30
2023-01-23T13:20:48.494Z,17.05
2023-01-23T13:23:27.246Z,17.35
2023-01-23T13:26:17.332Z,17.58
2023-01-23T13:28:47.955Z,17.55
2023-01-23T13:31:40.593Z,19.63
2023-01-23T13:34:19.242Z,16.73
2023-01-23T13:36:47.541Z,17.17
2023-01-23T13:39:17.388Z,17.67
2023-01-23T13:41:45.134Z,18.30
2023-01-23T13:44:27.139Z,17.80
2023-01-23T14:21:59.561Z,13.60
2023-01-23T14:24:30.363Z,14.77
2023-01-23T14:27:07.283Z,17.08
2023-01-23T14:29:34.659Z,16.42
2023-01-23T14:32:01.355Z,14.45
2023-01-23T14:34:28.334Z,15.85
2023-01-23T14:37:06.212Z,20.83
2023-01-23T14:39:35.054Z,17.02
2023-01-23T14:42:04.438Z,16.42
2023-01-23T14:44:42.985Z,17.70
2023-01-23T14:47:18.706Z,16.98
2023-01-23T14:49:48.282Z,17.23
2023-01-23T14:52:24.004Z,16.90
2023-01-23T14:57:23.265Z,15.38
2023-01-23T14:59:51.010Z,17.77
2023-01-23T15:02:36.555Z,20.55
2023-01-23T15:05:29.809Z,18.60
2023-01-23T15:07:57.745Z,20.60
2023-01-23T15:10:27.738Z,17.77
2023-01-23T15:13:01.515Z,18.13
2023-01-23T15:15:29.852Z,20.98
2023-01-23T15:17:57.214Z,19.42
2023-01-23T15:20:41.654Z,17.08
2023-01-23T15:23:22.653Z,18.50
2023-01-23T15:25:57.482Z,19.90
2023-01-23T15:28:48.948Z,19.20
2023-01-23T15:31:27.677Z,18.15
2023-01-23T15:33:56.076Z,16.33
2023-01-23T15:36:29.001Z,20.17
2023-01-23T15:38:58.085Z,17.13
2023-01-23T15:41:51.903Z,15.52
2023-01-23T15:44:21.649Z,17.80
2023-01-23T15:46:48.455Z,16.77
2023-01-23T15:49:24.977Z,16.48
2023-01-23T15:51:54.348Z,17.38
2023-01-23T15:54:32.810Z,16.83
2023-01-23T15:57:07.527Z,16.30
2023-01-23T15:59:35.275Z,14.95
2023-01-23T16:02:03.029Z,19.05
2023-01-23T16:04:29.684Z,16.75
2023-01-23T16:06:58.187Z,14.45
2023-01-23T16:09:33.193Z,14.57
2023-01-23T16:12:00.325Z,17.13
2023-01-23T16:14:27.564Z,15.93
2023-01-23T16:16:56.583Z,15.13
2023-01-23T16:19:23.403Z,15.02
2023-01-23T16:22:03.921Z,17.98
2023-01-23T16:24:35.262Z,14.73
2023-01-23T16:27:02.653Z,15.77
2023-01-23T16:29:31.785Z,16.27
2023-01-23T16:32:00.016Z,15.68
2023-01-23T16:34:27.022Z,14.50
2023-01-23T16:36:55.479Z,14.85
2023-01-23T16:39:24.635Z,17.52
2023-01-23T16:41:51.370Z,16.90
2023-01-23T16:44:19.280Z,14.95
2023-01-23T16:46:46.489Z,13.93
2023-01-23T16:49:13.880Z,15.30
2023-01-23T16:51:48.261Z,17.80
2023-01-23T16:54:21.823Z,13.10
2023-01-23T16:56:53.042Z,13.00
2023-01-23T16:59:22.653Z,13.50
2023-01-23T17:01:50.964Z,12.90
2023-01-23T17:04:19.721Z,13.75
2023-01-23T17:06:46.963Z,14.77
2023-01-23T17:09:15.022Z,14.95
2023-01-23T17:12:10.386Z,12.68
2023-01-23T17:14:37.870Z,14.27
2023-01-23T17:17:08.592Z,12.02
2023-01-23T17:19:40.431Z,12.95
2023-01-23T17:22:12.828Z,12.25
2023-01-23T17:24:39.460Z,13.52
2023-01-23T17:27:06.118Z,12.57
2023-01-23T17:29:32.815Z,25.85
2023-01-23T17:31:59.518Z,17.13
2023-01-23T17:34:28.208Z,11.23
2023-01-23T17:36:57.277Z,15.05
2023-01-23T17:39:24.215Z,10.90
2023-01-23T17:41:52.962Z,13.40
2023-01-23T17:44:19.681Z,11.05
2023-01-23T17:46:47.297Z,11.93
2023-01-23T17:49:31.372Z,11.32
2023-01-23T17:51:59.588Z,16.50
2023-01-23T17:54:26.613Z,15.73
2023-01-23T17:56:53.855Z,9.63
2023-01-23T17:59:20.603Z,22.08
2023-01-23T18:01:47.845Z,10.75
2023-01-23T18:04:20.643Z,12.95
2023-01-23T18:06:48.963Z,18.60
2023-01-23T18:09:16.154Z,9.93
2023-01-23T18:11:51.623Z,9.85
2023-01-23T18:14:41.695Z,9.63
2023-01-23T18:17:27.464Z,8.25
2023-01-23T18:19:56.649Z,9.45
2023-01-23T18:22:23.599Z,9.25
2023-01-23T18:24:50.524Z,9.00
2023-01-23T18:27:27.294Z,10.90
2023-01-23T18:30:21.099Z,8.90
2023-01-23T18:33:22.455Z,7.97
2023-01-23T18:36:18.279Z,7.88
2023-01-23T18:39:03.443Z,8.85
2023-01-23T18:41:30.262Z,10.25
2023-01-23T18:44:03.154Z,8.25
2023-01-23T18:46:29.981Z,9.20
2023-01-23T18:48:57.013Z,8.15
2023-01-23T18:51:54.680Z,11.60
2023-01-23T18:54:45.581Z,8.90
2023-01-23T18:57:22.833Z,7.68
2023-01-23T19:00:15.939Z,7.38
2023-01-23T19:02:52.329Z,6.45
2023-01-23T19:05:23.756Z,9.75
2023-01-23T19:07:50.855Z,7.93
2023-01-23T19:10:20.620Z,7.53
2023-01-23T19:13:25.910Z,8.52
2023-01-23T19:16:08.428Z,8.68
2023-01-23T19:18:40.934Z,7.53
2023-01-23T19:21:15.557Z,8.27
2023-01-23T19:23:58.433Z,8.07
2023-01-23T19:26:28.366Z,7.90
2023-01-23T19:28:59.691Z,7.78
2023-01-23T19:31:27.800Z,7.63
2023-01-23T19:33:55.091Z,6.63
2023-01-23T19:36:22.688Z,8.93
2023-01-23T19:38:50.178Z,10.85
2023-01-23T19:41:24.144Z,7.95
2023-01-23T19:43:55.032Z,8.73
2023-01-23T19:46:25.641Z,7.22
2023-01-23T19:48:52.416Z,7.07
2023-01-23T19:51:20.286Z,7.13
2023-01-23T19:53:47.350Z,6.95
2023-01-23T19:56:16.015Z,7.80
2023-01-23T19:58:43.004Z,8.50
2023-01-23T20:01:35.030Z,6.70
2023-01-23T20:04:03.586Z,7.72
2023-01-23T20:06:30.369Z,7.07
2023-01-23T20:08:57.099Z,7.55
2023-01-23T20:11:23.721Z,5.97
2023-01-23T20:13:50.383Z,7.68
2023-01-23T20:16:24.247Z,12.00
2023-01-23T20:18:51.310Z,7.75
2023-01-23T20:21:19.327Z,10.38
2023-01-23T20:23:46.606Z,10.15
2023-01-23T20:26:13.783Z,6.93
2023-01-23T20:28:40.959Z,7.60
2023-01-23T20:31:12.356Z,8.00
2023-01-23T20:33:42.088Z,7.40
2023-01-23T20:36:11.010Z,7.80
2023-01-23T20:38:38.759Z,6.45
2023-01-23T20:41:06.843Z,7.95
2023-01-23T20:43:34.429Z,7.03
2023-01-23T20:46:01.464Z,7.88
2023-01-23T20:48:28.171Z,8.90
2023-01-23T20:50:56.337Z,7.10
2023-01-23T20:53:32.087Z,7.35
2023-01-23T20:58:49.860Z,7.30
2023-01-23T21:01:18.192Z,6.40
2023-01-23T21:03:47.356Z,8.65
2023-01-23T21:06:15.492Z,7.20
2023-01-23T21:08:42.726Z,7.20
2023-01-23T21:11:13.151Z,7.25
2023-01-23T21:13:40.300Z,5.80
2023-01-23T21:16:10.846Z,7.03
2023-01-23T21:18:41.369Z,7.30
2023-01-23T21:21:09.005Z,6.40
2023-01-23T21:23:36.296Z,7.07
2023-01-23T21:26:03.761Z,6.35
2023-01-23T21:28:32.616Z,6.65
2023-01-23T21:30:59.390Z,10.35
2023-01-23T21:33:26.247Z,9.73
2023-01-23T21:35:53.993Z,7.82
2023-01-23T21:38:22.926Z,6.25
2023-01-23T21:40:49.741Z,7.05
2023-01-23T21:43:16.423Z,7.20
2023-01-23T21:45:43.108Z,6.55
2023-01-23T21:48:09.805Z,6.88
2023-01-23T21:50:36.791Z,8.60
2023-01-23T21:53:03.638Z,7.25
2023-01-23T21:55:30.309Z,7.50
2023-01-23T21:57:56.968Z,6.57
2023-01-23T22:00:42.371Z,7.10
2023-01-23T22:03:09.044Z,7.55
2023-01-23T22:05:35.780Z,7.55
2023-01-23T22:08:03.657Z,8.52
2023-01-23T22:10:31.050Z,6.95
2023-01-23T22:12:58.058Z,6.40
2023-01-23T22:15:24.811Z,7.20
2023-01-23T22:17:51.778Z,7.53
2023-01-23T22:20:18.995Z,7.43
2023-01-23T22:22:45.650Z,6.50
2023-01-23T22:25:12.399Z,7.07
2023-01-23T22:27:39.097Z,7.00
2023-01-23T22:30:06.275Z,8.35
2023-01-23T22:32:34.545Z,7.40
2023-01-23T22:35:03.069Z,7.60
2023-01-23T22:37:30.909Z,8.48
2023-01-23T22:39:57.622Z,7.90
2023-01-23T22:42:24.285Z,7.07
2023-01-23T22:44:51.038Z,10.43
2023-01-23T22:47:17.732Z,7.45
2023-01-23T22:49:44.367Z,8.40
2023-01-23T22:52:11.107Z,7.40
2023-01-23T22:54:37.786Z,7.82
2023-01-23T22:57:04.462Z,8.05
2023-01-23T22:59:31.145Z,7.65
2023-01-23T23:01:57.827Z,8.35
2023-01-23T23:04:26.060Z,7.80
2023-01-23T23:06:52.777Z,8.45
2023-01-23T23:09:19.708Z,8.23
2023-01-23T23:11:49.082Z,9.02
2023-01-23T23:14:16.027Z,8.63
2023-01-23T23:16:42.717Z,8.60
2023-01-23T23:19:09.923Z,7.45
2023-01-23T23:21:37.591Z,8.20
2023-01-23T23:24:07.035Z,7.80
2023-01-23T23:29:01.885Z,8.02
2023-01-23T23:31:28.915Z,9.50
2023-01-23T23:33:56.079Z,6.50
2023-01-23T23:36:22.796Z,8.30
2023-01-23T23:38:49.467Z,7.25
2023-01-23T23:41:16.641Z,7.57
2023-01-23T23:43:43.548Z,6.68
2023-01-23T23:46:14.076Z,7.18
2023-01-23T23:48:41.152Z,7.50
2023-01-23T23:51:09.528Z,8.05
2023-01-23T23:53:36.473Z,7.05
2023-01-23T23:56:04.508Z,8.05
2023-01-23T23:58:31.506Z,6.35
